Time;durP1;ratioP1;P1;durP2;ratioP2;P2;SDS_P1;SDS_P2;PMS_P1;PMS_P2;Temp;Humidity;BMP_temperature;BMP_pressure;BME280_temperature;BME280_humidity;BME280_pressure;Samples;Min_cycle;Max_cycle;Signal;HPM_P1;HPM_P2
2020/12/21 00:03:36;;;;;;;11.67;4.17;;;;;;;;;;10358141;28;20485;-65
2020/12/21 00:08:33;;;;;;;12.60;5.00;;;;;;;;;;10348608;28;20036;-64
2020/12/21 00:13:31;;;;;;;10.97;5.13;;;;;;;;;;10371846;28;20025;-66
2020/12/21 00:18:28;;;;;;;7.10;3.77;;;;;;;;;;10358014;28;20033;-67
2020/12/21 00:23:25;;;;;;;17.37;4.83;;;;;;;;;;10363581;28;20033;-64
2020/12/21 00:28:23;;;;;;;8.87;3.60;;;;;;;;;;10370181;28;20021;-65
2020/12/21 00:33:20;;;;;;;7.20;3.33;;;;;;;;;;10360474;28;20036;-64
2020/12/21 00:38:18;;;;;;;12.60;3.93;;;;;;;;;;10379080;28;20043;-64
2020/12/21 00:43:15;;;;;;;7.07;3.17;;;;;;;;;;10369697;28;20039;-62
2020/12/21 00:48:12;;;;;;;7.73;4.07;;;;;;;;;;10365346;28;20060;-62
2020/12/21 00:53:10;;;;;;;4.93;2.67;;;;;;;;;;10369302;28;20047;-66
2020/12/21 00:58:07;;;;;;;9.70;3.23;;;;;;;;;;10346120;28;20074;-66
2020/12/21 01:03:04;;;;;;;10.77;3.47;;;;;;;;;;10362026;28;20064;-63
2020/12/21 01:08:02;;;;;;;8.63;4.00;;;;;;;;;;10347673;28;20037;-63
2020/12/21 01:12:59;;;;;;;10.23;2.87;;;;;;;;;;10356585;28;20128;-62
2020/12/21 01:17:57;;;;;;;9.67;3.17;;;;;;;;;;10327758;28;20033;-63
2020/12/21 01:22:54;;;;;;;6.83;3.10;;;;;;;;;;10351582;28;20691;-64
2020/12/21 01:27:51;;;;;;;9.83;2.70;;;;;;;;;;10362215;28;20032;-67
2020/12/21 01:32:49;;;;;;;8.17;2.73;;;;;;;;;;10341322;28;20040;-63
2020/12/21 01:37:46;;;;;;;7.97;2.80;;;;;;;;;;10333925;28;20064;-64
2020/12/21 01:42:43;;;;;;;5.87;2.37;;;;;;;;;;10335934;28;20165;-65
2020/12/21 01:47:42;;;;;;;8.53;3.13;;;;;;;;;;10346108;28;20049;-65
2020/12/21 01:52:40;;;;;;;4.75;2.67;;;;;;;;;;10321379;28;20089;-66
2020/12/21 01:57:39;;;;;;;5.90;2.43;;;;;;;;;;10359540;28;20041;-67
2020/12/21 02:02:36;;;;;;;9.35;2.58;;;;;;;;;;10371899;28;20040;-65
2020/12/21 02:07:34;;;;;;;9.97;2.40;;;;;;;;;;10365945;28;20081;-66
2020/12/21 02:12:31;;;;;;;6.07;1.90;;;;;;;;;;10360839;28;20391;-62
2020/12/21 02:17:29;;;;;;;3.23;1.97;;;;;;;;;;10373350;28;20030;-65
2020/12/21 02:22:26;;;;;;;5.37;3.40;;;;;;;;;;10365492;28;20166;-62
2020/12/21 02:27:23;;;;;;;1.77;1.67;;;;;;;;;;10365267;28;20446;-65
2020/12/21 02:32:21;;;;;;;7.53;3.07;;;;;;;;;;10369866;28;20025;-66
2020/12/21 02:37:18;;;;;;;2.93;1.77;;;;;;;;;;10304521;28;20036;-65
2020/12/21 02:42:16;;;;;;;8.93;2.60;;;;;;;;;;10375102;28;20044;-65
2020/12/21 02:47:13;;;;;;;7.70;2.87;;;;;;;;;;10363980;28;20040;-64
2020/12/21 02:52:10;;;;;;;6.73;2.00;;;;;;;;;;10374276;28;20033;-65
2020/12/21 02:57:08;;;;;;;4.10;2.80;;;;;;;;;;10354376;28;20078;-64
2020/12/21 03:02:05;;;;;;;6.33;2.70;;;;;;;;;;10367012;28;20402;-65
2020/12/21 03:07:02;;;;;;;6.60;3.83;;;;;;;;;;10357617;28;20095;-64
2020/12/21 03:12:00;;;;;;;4.30;2.30;;;;;;;;;;10372700;28;20025;-65
2020/12/21 03:16:57;;;;;;;3.40;2.13;;;;;;;;;;10365337;28;20028;-66
2020/12/21 03:21:54;;;;;;;3.57;2.70;;;;;;;;;;10365053;28;20127;-64
2020/12/21 03:26:52;;;;;;;8.13;3.03;;;;;;;;;;10371963;28;20029;-67
2020/12/21 03:31:49;;;;;;;13.43;3.27;;;;;;;;;;10360625;28;20024;-64
2020/12/21 03:36:46;;;;;;;7.23;2.67;;;;;;;;;;10364339;28;20052;-65
2020/12/21 03:41:44;;;;;;;8.17;2.97;;;;;;;;;;10353827;28;20028;-65
2020/12/21 03:46:41;;;;;;;13.47;3.33;;;;;;;;;;10363799;28;20072;-65
2020/12/21 03:51:39;;;;;;;6.20;2.80;;;;;;;;;;10375108;28;20055;-63
2020/12/21 03:56:36;;;;;;;6.23;2.50;;;;;;;;;;10366755;28;20045;-65
2020/12/21 04:01:34;;;;;;;7.73;3.20;;;;;;;;;;10364773;28;20036;-65
2020/12/21 04:06:31;;;;;;;2.87;2.27;;;;;;;;;;10362939;28;20049;-65
2020/12/21 04:11:29;;;;;;;8.33;3.23;;;;;;;;;;10366953;28;20403;-64
2020/12/21 04:16:26;;;;;;;11.83;2.83;;;;;;;;;;10364351;28;20044;-65
2020/12/21 04:21:23;;;;;;;6.37;2.43;;;;;;;;;;10369634;28;20047;-65
2020/12/21 04:26:21;;;;;;;3.50;2.00;;;;;;;;;;10362590;28;20044;-65
2020/12/21 04:31:18;;;;;;;5.87;2.83;;;;;;;;;;10363490;28;20402;-65
2020/12/21 04:36:16;;;;;;;5.97;1.77;;;;;;;;;;10372697;28;20516;-66
2020/12/21 04:41:13;;;;;;;8.40;2.57;;;;;;;;;;10360619;28;20034;-66
2020/12/21 04:46:10;;;;;;;6.73;2.33;;;;;;;;;;10356414;28;20067;-64
2020/12/21 04:51:08;;;;;;;7.10;2.97;;;;;;;;;;10362762;28;20587;-65
2020/12/21 04:56:06;;;;;;;4.47;2.70;;;;;;;;;;10360207;28;20102;-65
2020/12/21 05:01:03;;;;;;;5.30;2.30;;;;;;;;;;10377085;28;20029;-64
2020/12/21 05:06:05;;;;;;;8.50;2.37;;;;;;;;;;10370961;28;20037;-64
2020/12/21 05:11:03;;;;;;;9.75;3.28;;;;;;;;;;10379613;28;20040;-64
2020/12/21 05:16:01;;;;;;;3.90;1.77;;;;;;;;;;10371249;28;20033;-65
2020/12/21 05:21:02;;;;;;;7.83;1.73;;;;;;;;;;10369840;28;20679;-65
2020/12/21 05:26:01;;;;;;;6.32;2.25;;;;;;;;;;10370058;28;20036;-64
2020/12/21 05:30:58;;;;;;;;;;;;;;;;;;10377023;28;20039;-64
2020/12/21 05:35:56;;;;;;;4.33;1.87;;;;;;;;;;10373109;28;19920;-64
2020/12/21 05:40:54;;;;;;;6.55;2.47;;;;;;;;;;10375760;28;20042;-65
2020/12/21 05:46:08;;;;;;;5.72;2.90;;;;;;;;;;10359678;28;20414;-64
2020/12/21 05:51:07;;;;;;;5.07;2.03;;;;;;;;;;10359422;28;20120;-64
2020/12/21 05:56:04;;;;;;;13.90;2.95;;;;;;;;;;10375773;28;20490;-64
2020/12/21 06:01:03;;;;;;;8.03;2.73;;;;;;;;;;10364349;28;20449;-65
2020/12/21 06:06:00;;;;;;;;;;;;;;;;;;10369221;28;20123;-63
2020/12/21 06:11:07;;;;;;;8.40;3.30;;;;;;;;;;10363368;28;20007;-64
2020/12/21 06:16:05;;;;;;;8.73;2.83;;;;;;;;;;10354947;28;20525;-64
2020/12/21 06:21:02;;;;;;;5.38;2.55;;;;;;;;;;10361952;28;20418;-63
2020/12/21 06:26:09;;;;;;;6.40;2.77;;;;;;;;;;10378668;28;20055;-64
2020/12/21 06:31:19;;;;;;;5.45;1.98;;;;;;;;;;10363535;28;20036;-64
2020/12/21 06:36:16;;;;;;;7.50;3.38;;;;;;;;;;10364221;28;20078;-64
2020/12/21 06:41:19;;;;;;;6.50;3.17;;;;;;;;;;10368148;28;20040;-64
2020/12/21 06:46:16;;;;;;;8.27;3.10;;;;;;;;;;10371956;28;20040;-65
2020/12/21 06:51:14;;;;;;;10.33;3.53;;;;;;;;;;10361655;28;20038;-63
2020/12/21 06:56:14;;;;;;;6.83;3.17;;;;;;;;;;10358614;28;20058;-64
2020/12/21 07:01:15;;;;;;;10.85;3.40;;;;;;;;;;10361625;28;20111;-63
2020/12/21 07:06:13;;;;;;;11.57;3.45;;;;;;;;;;10360898;28;20037;-64
2020/12/21 07:11:17;;;;;;;10.93;2.80;;;;;;;;;;10371909;28;20037;-65
2020/12/21 07:16:20;;;;;;;8.38;3.40;;;;;;;;;;10370147;28;20033;-63
2020/12/21 07:21:17;;;;;;;8.27;2.28;;;;;;;;;;10369628;28;20040;-64
2020/12/21 07:26:15;;;;;;;6.90;2.90;;;;;;;;;;10350600;28;20044;-64
2020/12/21 07:31:14;;;;;;;9.63;3.50;;;;;;;;;;10348397;28;20683;-64
2020/12/21 07:36:11;;;;;;;12.40;3.88;;;;;;;;;;10326045;28;20037;-64
2020/12/21 07:41:09;;;;;;;10.90;3.67;;;;;;;;;;10318621;28;20439;-65
2020/12/21 07:46:27;;;;;;;6.30;3.17;;;;;;;;;;10312016;28;20065;-65
2020/12/21 07:51:24;;;;;;;8.68;4.60;;;;;;;;;;10344961;28;20029;-64
2020/12/21 07:56:22;;;;;;;3.50;2.70;;;;;;;;;;10365086;28;20033;-65
2020/12/21 08:01:23;;;;;;;6.33;3.77;;;;;;;;;;10370487;28;20067;-65
2020/12/21 08:06:24;;;;;;;10.10;3.92;;;;;;;;;;10326963;28;20092;-65
2020/12/21 08:11:22;;;;;;;13.93;4.07;;;;;;;;;;10352585;28;20137;-65
2020/12/21 08:16:23;;;;;;;6.17;4.20;;;;;;;;;;10366884;28;20124;-64
2020/12/21 08:21:21;;;;;;;6.07;2.65;;;;;;;;;;10342333;28;20041;-64
2020/12/21 08:26:19;;;;;;;11.32;4.05;;;;;;;;;;10370344;28;20090;-63
2020/12/21 08:31:21;;;;;;;13.13;4.30;;;;;;;;;;10359489;28;20086;-65
2020/12/21 08:36:23;;;;;;;8.38;5.05;;;;;;;;;;10317669;28;20052;-64
2020/12/21 08:41:21;;;;;;;10.50;4.80;;;;;;;;;;10317232;28;20119;-64
2020/12/21 08:46:19;;;;;;;7.90;4.63;;;;;;;;;;10299930;28;20044;-64
2020/12/21 08:51:16;;;;;;;10.00;4.00;;;;;;;;;;10306971;28;20678;-64
2020/12/21 08:56:15;;;;;;;12.47;4.37;;;;;;;;;;10345151;28;20037;-63
2020/12/21 09:01:12;;;;;;;;;;;;;;;;;;10349966;28;20543;-65
2020/12/21 09:06:14;;;;;;;8.68;4.85;;;;;;;;;;10370957;28;19916;-63
2020/12/21 09:11:12;;;;;;;9.32;4.72;;;;;;;;;;10358251;28;20064;-63
2020/12/21 09:16:09;;;;;;;9.00;4.83;;;;;;;;;;10362484;28;20056;-64
2020/12/21 09:21:06;;;;;;;17.67;5.33;;;;;;;;;;10366706;28;20032;-63
2020/12/21 09:26:04;;;;;;;10.03;4.73;;;;;;;;;;10362950;28;20090;-64
2020/12/21 09:31:01;;;;;;;7.97;4.73;;;;;;;;;;10350331;28;20499;-64
2020/12/21 09:35:59;;;;;;;20.20;5.03;;;;;;;;;;10344054;28;20056;-63
2020/12/21 09:40:56;;;;;;;15.67;4.70;;;;;;;;;;10360574;28;20413;-63
2020/12/21 09:45:54;;;;;;;9.87;4.83;;;;;;;;;;10354604;28;20066;-63
2020/12/21 09:50:51;;;;;;;9.57;4.93;;;;;;;;;;10351955;28;20048;-64
2020/12/21 09:55:48;;;;;;;11.07;5.77;;;;;;;;;;10356288;28;20076;-63
2020/12/21 10:00:46;;;;;;;4.77;3.10;;;;;;;;;;10352474;28;20170;-64
2020/12/21 10:05:43;;;;;;;21.33;10.30;;;;;;;;;;10357899;28;20415;-64
2020/12/21 10:10:41;;;;;;;15.97;7.70;;;;;;;;;;10327177;28;20049;-64
2020/12/21 10:15:38;;;;;;;5.13;3.80;;;;;;;;;;10330702;28;20060;-63
2020/12/21 10:20:35;;;;;;;6.23;3.67;;;;;;;;;;10321951;28;20049;-64
2020/12/21 10:25:33;;;;;;;13.90;4.57;;;;;;;;;;10345047;28;20131;-63
2020/12/21 10:30:31;;;;;;;9.27;3.80;;;;;;;;;;10364118;28;20072;-63
2020/12/21 10:35:28;;;;;;;7.60;3.90;;;;;;;;;;10349750;28;20067;-63
2020/12/21 10:40:26;;;;;;;8.17;4.23;;;;;;;;;;10331628;28;20069;-64
2020/12/21 10:45:23;;;;;;;8.97;3.67;;;;;;;;;;10322369;28;20123;-63
2020/12/21 10:50:21;;;;;;;8.33;3.87;;;;;;;;;;10304070;28;22082;-64
2020/12/21 10:55:18;;;;;;;10.10;3.73;;;;;;;;;;10312977;28;20119;-64
2020/12/21 11:00:15;;;;;;;7.83;3.43;;;;;;;;;;10305182;28;20048;-64
2020/12/21 11:05:13;;;;;;;7.87;3.47;;;;;;;;;;10324874;28;20089;-63
2020/12/21 11:10:11;;;;;;;6.07;3.17;;;;;;;;;;10357017;28;20132;-64
2020/12/21 11:15:08;;;;;;;7.60;2.45;;;;;;;;;;10356308;28;20064;-65
2020/12/21 11:20:06;;;;;;;4.07;2.17;;;;;;;;;;10360847;28;20048;-65
2020/12/21 11:25:05;;;;;;;5.77;1.83;;;;;;;;;;10344668;28;20039;-65
2020/12/21 11:30:05;;;;;;;5.85;2.17;;;;;;;;;;10344691;28;20520;-65
2020/12/21 11:35:02;;;;;;;6.78;3.03;;;;;;;;;;10355206;28;20625;-65
2020/12/21 11:39:59;;;;;;;7.97;2.27;;;;;;;;;;10359495;28;20032;-65
2020/12/21 11:44:58;;;;;;;3.00;1.67;;;;;;;;;;10360074;28;20077;-65
2020/12/21 11:49:56;;;;;;;7.78;1.83;;;;;;;;;;10341595;28;20144;-64
2020/12/21 11:54:54;;;;;;;6.80;1.90;;;;;;;;;;10359225;28;20135;-64
2020/12/21 11:59:52;;;;;;;7.72;1.70;;;;;;;;;;10341283;28;21071;-64
2020/12/21 12:04:49;;;;;;;11.40;3.00;;;;;;;;;;10356479;28;20112;-63
2020/12/21 12:09:47;;;;;;;6.27;1.53;;;;;;;;;;10329405;28;20529;-64
2020/12/21 12:14:44;;;;;;;3.70;1.07;;;;;;;;;;10312935;28;20483;-64
2020/12/21 12:19:42;;;;;;;5.33;1.83;;;;;;;;;;10298871;28;20421;-64
2020/12/21 12:24:39;;;;;;;2.30;1.30;;;;;;;;;;10322935;28;20044;-64
2020/12/21 12:29:37;;;;;;;2.57;1.60;;;;;;;;;;10354522;28;20033;-65
2020/12/21 12:34:34;;;;;;;6.60;1.92;;;;;;;;;;10353711;28;20040;-63
2020/12/21 12:39:32;;;;;;;3.10;1.70;;;;;;;;;;10362308;28;20115;-64
2020/12/21 12:44:29;;;;;;;5.43;2.90;;;;;;;;;;10363226;28;20494;-64
2020/12/21 12:49:26;;;;;;;3.13;1.43;;;;;;;;;;10341970;28;20036;-64
2020/12/21 12:54:24;;;;;;;9.10;1.83;;;;;;;;;;10318644;28;20759;-65
2020/12/21 12:59:22;;;;;;;2.83;1.10;;;;;;;;;;10368419;28;20563;-63
2020/12/21 13:04:20;;;;;;;5.07;1.33;;;;;;;;;;10350275;28;20102;-64
2020/12/21 13:09:17;;;;;;;4.43;1.90;;;;;;;;;;10365497;28;20074;-65
2020/12/21 13:14:14;;;;;;;10.13;2.60;;;;;;;;;;10366140;28;20515;-64
2020/12/21 13:19:12;;;;;;;10.80;2.87;;;;;;;;;;10348306;28;20037;-66
2020/12/21 13:24:10;;;;;;;4.82;1.92;;;;;;;;;;10352418;28;20107;-66
2020/12/21 13:29:09;;;;;;;4.10;2.08;;;;;;;;;;10331993;28;20033;-64
2020/12/21 13:34:06;;;;;;;2.43;1.10;;;;;;;;;;10331703;28;20045;-63
2020/12/21 13:39:04;;;;;;;5.20;2.10;;;;;;;;;;10352033;28;20040;-63
2020/12/21 13:44:01;;;;;;;6.27;1.80;;;;;;;;;;10357958;28;20041;-64
2020/12/21 13:48:58;;;;;;;8.23;1.77;;;;;;;;;;10350691;28;20040;-65
2020/12/21 13:53:56;;;;;;;9.13;2.53;;;;;;;;;;10339361;28;20085;-63
2020/12/21 13:58:53;;;;;;;2.73;1.33;;;;;;;;;;10346742;28;20715;-63
2020/12/21 14:03:50;;;;;;;9.97;1.93;;;;;;;;;;10300595;28;20039;-63
2020/12/21 14:08:48;;;;;;;4.87;1.77;;;;;;;;;;10352115;28;20182;-63
2020/12/21 14:13:51;;;;;;;2.47;1.60;;;;;;;;;;10344802;28;20413;-67
2020/12/21 14:18:50;;;;;;;3.67;1.50;;;;;;;;;;10342040;28;20021;-66
2020/12/21 14:23:48;;;;;;;7.28;1.83;;;;;;;;;;10331523;28;20021;-66
2020/12/21 14:28:45;;;;;;;1.90;1.17;;;;;;;;;;10354162;28;20504;-65
2020/12/21 14:33:42;;;;;;;4.23;1.47;;;;;;;;;;10350405;28;20028;-65
2020/12/21 14:38:40;;;;;;;2.00;1.60;;;;;;;;;;10328109;28;20036;-65
2020/12/21 14:43:37;;;;;;;6.27;1.80;;;;;;;;;;10349848;28;20073;-66
2020/12/21 14:48:35;;;;;;;10.37;1.47;;;;;;;;;;10346658;28;20017;-66
2020/12/21 14:53:32;;;;;;;8.13;2.10;;;;;;;;;;10348518;28;20087;-65
2020/12/21 14:58:30;;;;;;;7.57;2.10;;;;;;;;;;10350942;28;20403;-66
2020/12/21 15:03:27;;;;;;;5.03;1.90;;;;;;;;;;10342984;28;20529;-66
2020/12/21 15:08:24;;;;;;;5.87;1.50;;;;;;;;;;10345841;28;20037;-66
2020/12/21 15:13:22;;;;;;;5.77;2.63;;;;;;;;;;10311568;28;20041;-66
2020/12/21 15:18:21;;;;;;;3.43;1.40;;;;;;;;;;10308928;28;20422;-66
2020/12/21 15:23:18;;;;;;;3.83;1.50;;;;;;;;;;10325114;28;20407;-65
2020/12/21 15:28:15;;;;;;;5.27;2.50;;;;;;;;;;10293269;28;20034;-66
2020/12/21 15:33:13;;;;;;;5.90;1.63;;;;;;;;;;10300286;28;20451;-65
2020/12/21 15:38:10;;;;;;;4.40;2.27;;;;;;;;;;10311480;28;20040;-65
2020/12/21 15:43:08;;;;;;;2.63;1.23;;;;;;;;;;10298785;28;20030;-65
2020/12/21 15:48:06;;;;;;;6.77;2.37;;;;;;;;;;10303498;28;20132;-66
2020/12/21 15:53:03;;;;;;;4.47;1.65;;;;;;;;;;10309811;28;20132;-65
2020/12/21 15:58:02;;;;;;;3.20;1.87;;;;;;;;;;10322973;28;20129;-66
2020/12/21 16:03:00;;;;;;;4.95;2.58;;;;;;;;;;10315975;28;20102;-65
2020/12/21 16:07:58;;;;;;;5.80;2.33;;;;;;;;;;10333895;28;20037;-65
2020/12/21 16:12:55;;;;;;;5.57;2.33;;;;;;;;;;10328784;28;20041;-64
2020/12/21 16:17:52;;;;;;;6.60;2.60;;;;;;;;;;10316461;28;20044;-65
2020/12/21 16:22:50;;;;;;;6.07;3.10;;;;;;;;;;10355486;28;20097;-66
2020/12/21 16:27:47;;;;;;;6.53;2.27;;;;;;;;;;10346943;28;20037;-66
2020/12/21 16:32:46;;;;;;;3.57;1.93;;;;;;;;;;10354419;28;20033;-64
2020/12/21 16:37:43;;;;;;;3.55;2.22;;;;;;;;;;10365512;28;20132;-64
2020/12/21 16:42:44;;;;;;;8.30;2.20;;;;;;;;;;10355465;28;20147;-63
2020/12/21 16:47:42;;;;;;;5.32;2.20;;;;;;;;;;10359305;28;20054;-64
2020/12/21 16:52:39;;;;;;;2.97;2.03;;;;;;;;;;10350025;28;20048;-64
2020/12/21 16:57:37;;;;;;;4.07;2.30;;;;;;;;;;10360110;28;20044;-63
2020/12/21 17:02:34;;;;;;;5.30;2.77;;;;;;;;;;10368499;28;20028;-64
2020/12/21 17:07:32;;;;;;;5.97;3.08;;;;;;;;;;10365459;28;20031;-63
2020/12/21 17:12:29;;;;;;;5.07;2.40;;;;;;;;;;10355917;28;20388;-63
2020/12/21 17:17:27;;;;;;;6.93;2.97;;;;;;;;;;10358776;28;20024;-63
2020/12/21 17:22:26;;;;;;;8.10;2.67;;;;;;;;;;10342495;28;20188;-64
2020/12/21 17:27:24;;;;;;;7.53;2.72;;;;;;;;;;10349372;28;20039;-64
2020/12/21 17:32:21;;;;;;;5.70;2.63;;;;;;;;;;10342685;28;20051;-63
2020/12/21 17:37:19;;;;;;;2.43;2.10;;;;;;;;;;10356936;28;20037;-63
2020/12/21 17:42:16;;;;;;;4.90;3.03;;;;;;;;;;10355279;28;20131;-64
2020/12/21 17:47:14;;;;;;;6.57;3.50;;;;;;;;;;10355312;28;20522;-64
2020/12/21 17:52:11;;;;;;;5.57;2.80;;;;;;;;;;10357067;28;20041;-63
2020/12/21 17:57:09;;;;;;;7.53;2.57;;;;;;;;;;10343906;28;20048;-64
2020/12/21 18:02:07;;;;;;;6.63;2.45;;;;;;;;;;10346588;28;20036;-63
2020/12/21 18:07:04;;;;;;;8.23;3.40;;;;;;;;;;10340297;28;20032;-63
2020/12/21 18:12:02;;;;;;;10.20;2.63;;;;;;;;;;10329468;28;20100;-63
2020/12/21 18:16:59;;;;;;;3.50;2.10;;;;;;;;;;10356816;28;20059;-63
2020/12/21 18:21:57;;;;;;;7.57;3.00;;;;;;;;;;10365140;28;20036;-63
2020/12/21 18:26:54;;;;;;;5.70;3.40;;;;;;;;;;10357309;28;20040;-63
2020/12/21 18:31:51;;;;;;;6.87;3.23;;;;;;;;;;10362124;28;20045;-63
2020/12/21 18:36:49;;;;;;;6.50;3.57;;;;;;;;;;10346490;28;20031;-63
2020/12/21 18:41:47;;;;;;;5.27;3.20;;;;;;;;;;10358853;28;20032;-63
2020/12/21 18:46:44;;;;;;;6.37;3.00;;;;;;;;;;10366614;28;20041;-63
2020/12/21 18:51:45;;;;;;;6.80;3.23;;;;;;;;;;10354542;28;20033;-63
2020/12/21 18:56:42;;;;;;;7.45;3.47;;;;;;;;;;10361418;28;20041;-63
2020/12/21 19:01:40;;;;;;;5.97;3.63;;;;;;;;;;10361630;28;20041;-63
2020/12/21 19:06:38;;;;;;;7.32;3.42;;;;;;;;;;10318660;28;20042;-63
2020/12/21 19:11:36;;;;;;;6.60;3.60;;;;;;;;;;10322651;28;20028;-61
2020/12/21 19:16:33;;;;;;;11.00;3.92;;;;;;;;;;10348385;28;20396;-63
2020/12/21 19:21:31;;;;;;;8.20;4.40;;;;;;;;;;10363359;28;20418;-62
2020/12/21 19:26:28;;;;;;;15.33;7.60;;;;;;;;;;10368533;28;20091;-63
2020/12/21 19:31:33;;;;;;;10.27;5.07;;;;;;;;;;10345634;28;20064;-64
2020/12/21 19:36:31;;;;;;;9.93;5.30;;;;;;;;;;10371967;28;20056;-64
2020/12/21 19:41:29;;;;;;;10.02;5.82;;;;;;;;;;10363770;28;20033;-64
2020/12/21 19:46:33;;;;;;;8.70;5.63;;;;;;;;;;10375460;28;20052;-64
2020/12/21 19:51:31;;;;;;;10.48;4.97;;;;;;;;;;10349426;28;20040;-63
2020/12/21 19:56:28;;;;;;;8.93;5.57;;;;;;;;;;10342308;28;20044;-63
2020/12/21 20:01:26;;;;;;;12.40;5.67;;;;;;;;;;10318678;28;20045;-63
2020/12/21 20:06:23;;;;;;;11.00;6.40;;;;;;;;;;10340988;28;20125;-62
2020/12/21 20:11:21;;;;;;;8.20;5.50;;;;;;;;;;10356372;28;20029;-63
2020/12/21 20:16:19;;;;;;;10.63;5.80;;;;;;;;;;10346813;28;20113;-62
2020/12/21 20:21:17;;;;;;;8.18;5.28;;;;;;;;;;10329669;28;20123;-63
2020/12/21 20:26:14;;;;;;;7.83;4.13;;;;;;;;;;10326294;28;20384;-62
2020/12/21 20:31:12;;;;;;;10.10;5.70;;;;;;;;;;10337032;28;20036;-63
2020/12/21 20:36:11;;;;;;;8.57;5.60;;;;;;;;;;10352639;28;20040;-63
2020/12/21 20:41:14;;;;;;;7.72;5.43;;;;;;;;;;10338184;28;20398;-61
2020/12/21 20:46:12;;;;;;;7.70;4.72;;;;;;;;;;10366847;28;20037;-62
2020/12/21 20:51:10;;;;;;;8.65;4.47;;;;;;;;;;10363002;28;20402;-62
2020/12/21 20:56:11;;;;;;;9.20;6.03;;;;;;;;;;10347823;28;20036;-63
2020/12/21 21:01:08;;;;;;;11.48;5.38;;;;;;;;;;10362937;28;20322;-63
2020/12/21 21:06:06;;;;;;;9.87;5.43;;;;;;;;;;10353419;28;20545;-63
2020/12/21 21:11:03;;;;;;;9.80;6.20;;;;;;;;;;10345109;28;20033;-63
2020/12/21 21:16:00;;;;;;;11.77;7.53;;;;;;;;;;10346137;28;20058;-63
2020/12/21 21:20:58;;;;;;;9.50;5.93;;;;;;;;;;10350582;28;20131;-63
2020/12/21 21:25:56;;;;;;;9.77;6.67;;;;;;;;;;10347412;28;20047;-63
2020/12/21 21:30:54;;;;;;;12.52;7.72;;;;;;;;;;10333915;28;20399;-62
2020/12/21 21:35:52;;;;;;;12.57;7.53;;;;;;;;;;10353293;28;20793;-61
2020/12/21 21:40:49;;;;;;;9.57;5.33;;;;;;;;;;10366567;28;20032;-62
2020/12/21 21:45:47;;;;;;;9.87;6.03;;;;;;;;;;10353361;28;20040;-62
2020/12/21 21:50:44;;;;;;;6.43;4.40;;;;;;;;;;10347032;28;20489;-62
2020/12/21 21:55:41;;;;;;;9.90;6.03;;;;;;;;;;10312821;28;20037;-62
2020/12/21 22:00:39;;;;;;;7.60;5.20;;;;;;;;;;10330762;28;20053;-63
2020/12/21 22:05:37;;;;;;;10.20;6.30;;;;;;;;;;10364237;28;20059;-63
2020/12/21 22:10:35;;;;;;;12.32;6.18;;;;;;;;;;10360343;28;20498;-62
2020/12/21 22:15:32;;;;;;;10.73;6.23;;;;;;;;;;10361844;28;20398;-62
2020/12/21 22:20:29;;;;;;;12.90;6.17;;;;;;;;;;10338627;28;20449;-62
2020/12/21 22:25:27;;;;;;;10.57;5.60;;;;;;;;;;10360149;28;20043;-62
2020/12/21 22:30:26;;;;;;;9.55;5.18;;;;;;;;;;10344668;28;20416;-60
2020/12/21 22:35:23;;;;;;;10.27;5.93;;;;;;;;;;10342531;28;20071;-62
2020/12/21 22:40:21;;;;;;;10.10;5.10;;;;;;;;;;10333979;28;20743;-62
2020/12/21 22:45:18;;;;;;;8.27;5.47;;;;;;;;;;10345600;28;20040;-63
2020/12/21 22:50:16;;;;;;;8.27;5.13;;;;;;;;;;10347713;28;20032;-63
2020/12/21 22:55:13;;;;;;;12.13;6.30;;;;;;;;;;10339968;28;20029;-63
2020/12/21 23:00:12;;;;;;;15.37;6.80;;;;;;;;;;10350597;28;20105;-62
2020/12/21 23:05:09;;;;;;;11.98;5.95;;;;;;;;;;10353222;28;20044;-63
2020/12/21 23:10:07;;;;;;;16.53;7.07;;;;;;;;;;10321300;28;20584;-63
2020/12/21 23:15:04;;;;;;;12.53;6.27;;;;;;;;;;10364099;28;20112;-63
2020/12/21 23:20:03;;;;;;;9.90;6.07;;;;;;;;;;10345959;28;20037;-63
2020/12/21 23:25:01;;;;;;;8.82;5.63;;;;;;;;;;10342766;28;20064;-63
2020/12/21 23:29:58;;;;;;;8.67;5.23;;;;;;;;;;10315161;28;20531;-63
2020/12/21 23:34:56;;;;;;;10.77;6.13;;;;;;;;;;10342155;28;20159;-63
2020/12/21 23:39:53;;;;;;;12.10;5.87;;;;;;;;;;10308961;28;20028;-63
2020/12/21 23:44:50;;;;;;;9.23;5.27;;;;;;;;;;10337613;28;20109;-63
2020/12/21 23:49:48;;;;;;;11.47;5.77;;;;;;;;;;10348838;28;20047;-62
2020/12/21 23:54:45;;;;;;;13.47;6.37;;;;;;;;;;10362382;28;20040;-62
2020/12/21 23:59:43;;;;;;;12.17;8.07;;;;;;;;;;10356801;28;20035;-63
